Portada
METAR-TAF:

METAR-TAF

Aeroports :

Aeroport Internacional de Tabarka

Tabarka, Tunísia

latitud: 36-57N, longitud: 008-45E, altitud: 20 m

Observació

L'informe es va fer fa 1 hora i 2 minuts, a les 22:00 UTC
Vent 2 kt amb direcció variable
Temperatura 23°C
Humitat 73%
Pressió 1017 hPa
Visibilitat 10 km o més
sense núvols per sota de 1500 mi sense presència de cumulonimbus.

METAR: DTKA 182200Z VRB02KT CAVOK 23/18 Q1017 NOSIG

Hora: 00:02 (23:02 UTC)

Pronòstic

L'informe es va fer fa 5 hores i 2 minuts, a les 18:00 UTC
Pronòstic vàlid del 18 a les 19 UTC al 19 a les 04 UTC
Vent 5 kt del Nord/Nord-Oest
Visibilitat 10 km o més
sense núvols per sota de 1500 mi sense presència de cumulonimbus.

TAF: DTKA 181800Z 1819/1904 34005KT CAVOK

Observacions i pronòstics meteorològics de més de 4000 aeroports (METAR i TAF).

Les estacions disponibles són els punts grocs i vermells al mapa.

Posi el ratolí al punt desitjat per veure el nom de l'estació.

Feu clic per veure les observacions i els pronòstics meteorològics.

Per canviar el mapa: feu clic els botons verds amb una creu de color negre per apropar; al botó verd amb un guió per allunyar la imatge; o en les fletxes verdes per a mapes adjacents.


METAR-TAF: